パリ/シャルル・ド・ゴール の空港の天気 - METARとTAF

シャルル・ド・ゴール国際空港(パリ) ( LFPG / CDG ) - フランス Paris
飛行場実況気象(Metar)
観測時間08/13 22:30 CEST (08/13 20:30 UTC)
風向・風速北東 5m/s
視程10km以上
天気現象
なし
気温25℃
湿度32%
気圧1011hPa
METARLFPG 132030Z 05009KT CAVOK 25/07 Q1011 NOSIG
過去の天気等 Google飛行場航空写真 Wunderground天気予報

過去48時間のMETAR

飛行場予報(TAF)
発表時間: 8/13 19:00 CEST (8/13 17:00 UTC)
予報対象時間: 13日20時 CEST ~ 15日2時 CEST
風向・風速東南東 5m/s
視程10km以上
なし
14日11時 CEST ~ 14日13時 CEST に徐々に
風向・風速西南西 5m/s
14日14時 CEST ~ 14日17時 CEST に 確率 30% で一時的に
風向・風速西南西 8m/s 瞬間風速 13m/s
14日15時 CEST ~ 15日2時 CEST に 確率 40% で一時的に
視程4000m
天気現象雷雨
全天の8割程度の積乱雲 雲底高度 1370m
14日15時 CEST ~ 14日20時 CEST に 確率 30% で一時的に
視程2500m
天気現象雷雨ひょう
TAF LFPG 131700Z 1318/1424 11010KT CAVOK TX31/1318Z TN20/1424Z
BECMG 1409/1411 24010KT
PROB30 TEMPO 1412/1415 24015G25KT
PROB40 TEMPO 1413/1424 4000 TSRA BKN045CB
PROB30 TEMPO 1413/1418 2500 TSRAGR